Darstellungsparameter: Aktuell verwendete Einstellungen:
Skalierung der Graphiken ... ?
xyx+y,   Skalierungsfaktor:      Skalierung: Modus: x, Faktor: 1
Darstellungszeitraum ... ?
Vom - - bis: - -   Zeitraum: 18.07.2006 - 24.07.2006
Min/Max/Avg-Anzeige ... ?
Zeige MMA aktuell
Zeige MMA Monat
Zeige MMA alles
Zeige --A aktuell
Zeige --A Monat
Zeige --A alles
Keine MMA-Anzeige
MMA:
Keine MMA-Graphiken
MMA-Basis: 18.07.2006 - 24.07.2006
Quicknavigation für Darstellung... ?
Tage:      1T, 2T, 3T, 5T -1T -2T -3T -5T +1T +2T +3T +5T
Wochen: 1W, 2W, 3W -1W -2W -3W +1W +2W +3W
Monate: 1M, 3M, 6M -1M -3M -6M +1M +3M +6M
Jahre:    1J, 3J, 5J, 10J -1J -3J -5J -10J +1J +3J +5J +10J
Nutze für die Darstellung ... ?
Originaldaten oder Mittelwerte auf ...
Stundenbasis Tagesbasis Wochenbasis
Monatsbasis Jahresbasis      Datenbasis: Original-Daten
Darstellen als:
Statistik (Auto) Statistik J:M      Darstellung:
Zur Graphik,    zurück zur Übersicht aller Sensoren.
 
Tabellarische Datenbersicht: ?
 
Sensor: Nr:Datum:Temp:Feuchte:Taupunkt:
Aussen-T/F 1 18-07-2006 00:07:02 23.2 C 36 % 7.31 C
2 18-07-2006 00:17:01 22.7 C 36 % 6.87 C
3 18-07-2006 00:27:01 22.5 C 38 % 7.48 C
4 18-07-2006 00:37:02 22.3 C 38 % 7.31 C
5 18-07-2006 00:47:03 21.9 C 39 % 7.33 C
6 18-07-2006 00:57:03 21.7 C 40 % 7.52 C
7 18-07-2006 01:07:02 21.5 C 41 % 7.7 C
8 18-07-2006 01:17:03 21.3 C 41 % 7.53 C
9 18-07-2006 01:27:03 21 C 42 % 7.61 C
10 18-07-2006 01:37:03 20.9 C 43 % 7.86 C
11 18-07-2006 01:47:02 20.8 C 45 % 8.44 C
12 18-07-2006 01:57:02 20.5 C 46 % 8.49 C
13 18-07-2006 02:07:02 20.5 C 46 % 8.49 C
14 18-07-2006 02:17:02 19.9 C 51 % 9.47 C
15 18-07-2006 02:27:02 19.6 C 50 % 8.9 C
16 18-07-2006 02:37:02 19.4 C 48 % 8.12 C
17 18-07-2006 02:48:04 19.3 C 48 % 8.03 C
18 18-07-2006 02:58:04 19 C 49 % 8.05 C
19 18-07-2006 03:08:04 18.9 C 50 % 8.26 C
20 18-07-2006 03:18:03 18.7 C 51 % 8.37 C
21 18-07-2006 03:28:03 18.6 C 52 % 8.56 C
22 18-07-2006 03:38:02 18.4 C 52 % 8.38 C
23 18-07-2006 03:48:02 18.4 C 52 % 8.38 C
24 18-07-2006 03:58:02 18.2 C 53 % 8.47 C
25 18-07-2006 04:08:02 17.9 C 55 % 8.74 C
Sensor: Nr:Datum:Temp:Feuchte:Taupunkt:
Aussen-T/F 26 18-07-2006 04:18:03 17.8 C 56 % 8.91 C
27 18-07-2006 04:28:03 17.6 C 57 % 8.99 C
28 18-07-2006 04:38:02 17.4 C 58 % 9.06 C
29 18-07-2006 04:48:03 17.2 C 57 % 8.62 C
30 18-07-2006 04:58:03 17 C 60 % 9.19 C
31 18-07-2006 05:08:03 16.8 C 62 % 9.49 C
32 18-07-2006 05:18:02 16.7 C 61 % 9.15 C
33 18-07-2006 05:28:02 16.5 C 63 % 9.44 C
34 18-07-2006 05:38:02 16.4 C 63 % 9.35 C
35 18-07-2006 05:48:02 16.3 C 63 % 9.25 C
36 18-07-2006 05:58:02 16.2 C 63 % 9.16 C
37 18-07-2006 06:08:01 16.1 C 64 % 9.29 C
38 18-07-2006 06:18:02 16.2 C 64 % 9.39 C
39 18-07-2006 06:28:02 16.1 C 65 % 9.53 C
40 18-07-2006 06:38:02 16.2 C 65 % 9.62 C
41 18-07-2006 06:48:03 16.4 C 65 % 9.81 C
42 18-07-2006 06:58:03 16.4 C 66 % 10.04 C
43 18-07-2006 07:08:02 16.5 C 66 % 10.13 C
44 18-07-2006 07:18:02 16.6 C 66 % 10.23 C
45 18-07-2006 07:28:02 16.6 C 66 % 10.23 C
46 18-07-2006 07:38:02 16.6 C 65 % 10 C
47 18-07-2006 07:48:01 16.6 C 65 % 10 C
48 18-07-2006 07:58:01 17 C 63 % 9.91 C
49 18-07-2006 08:08:01 17.2 C 64 % 10.34 C
50 18-07-2006 08:18:01 17.5 C 62 % 10.15 C
Sensor: Nr:Datum:Temp:Feuchte:Taupunkt:
Aussen-T/F 51 18-07-2006 08:28:01 17.7 C 61 % 10.09 C
52 18-07-2006 08:38:02 17.9 C 61 % 10.28 C
53 18-07-2006 08:48:02 18.2 C 58 % 9.81 C
54 18-07-2006 08:58:03 18.6 C 58 % 10.18 C
55 18-07-2006 09:08:01 19.1 C 58 % 10.65 C
56 18-07-2006 09:18:01 19.8 C 56 % 10.78 C
57 18-07-2006 09:28:01 20.4 C 54 % 10.79 C
58 18-07-2006 09:38:02 21.3 C 53 % 11.34 C
59 18-07-2006 09:48:02 21.9 C 51 % 11.31 C
60 18-07-2006 09:58:02 22.6 C 50 % 11.66 C
61 18-07-2006 10:08:01 23.4 C 47 % 11.45 C
62 18-07-2006 10:18:01 24.1 C 45 % 11.43 C
63 18-07-2006 10:28:01 24.9 C 43 % 11.47 C
64 18-07-2006 10:38:01 25.7 C 41 % 11.47 C
65 18-07-2006 10:48:02 26.6 C 39 % 11.51 C
66 18-07-2006 10:58:02 27.2 C 36 % 10.84 C
67 18-07-2006 11:08:01 27.8 C 31 % 9.13 C
68 18-07-2006 11:18:01 28.4 C 29 % 8.66 C
69 18-07-2006 11:28:01 29.1 C 28 % 8.74 C
70 18-07-2006 11:38:01 29.2 C 26 % 7.73 C
71 18-07-2006 11:48:02 29.7 C 25 % 7.58 C
72 18-07-2006 11:58:02 30 C 24 % 7.24 C
73 18-07-2006 12:08:02 30.2 C 24 % 7.4 C
74 18-07-2006 12:18:01 30.5 C 22 % 6.39 C
75 18-07-2006 12:28:01 31 C 21 % 6.13 C
Sensor: Nr:Datum:Temp:Feuchte:Taupunkt:
Aussen-T/F 76 18-07-2006 12:38:01 31.4 C 20 % 5.75 C
77 18-07-2006 12:48:03 31.6 C 20 % 5.91 C
78 18-07-2006 12:58:03 31.8 C 20 % 6.08 C
79 18-07-2006 13:08:02 32.2 C 20 % 6.41 C
80 18-07-2006 13:18:02 32.5 C 20 % 6.65 C
81 18-07-2006 13:28:02 32.4 C 20 % 6.57 C
82 18-07-2006 13:38:02 32.6 C 20 % 6.73 C
83 18-07-2006 13:48:02 32.7 C 20 % 6.81 C
84 18-07-2006 13:58:02 33 C 20 % 7.06 C
85 18-07-2006 14:08:02 32.9 C 20 % 6.98 C
86 18-07-2006 14:18:01 32.7 C 20 % 6.81 C
87 18-07-2006 14:28:01 32.8 C 20 % 6.9 C
88 18-07-2006 14:38:01 32.8 C 20 % 6.9 C
89 18-07-2006 14:48:02 33.3 C 20 % 7.3 C
90 18-07-2006 14:58:02 33.6 C 20 % 7.55 C
91 18-07-2006 15:08:02 33.7 C 20 % 7.63 C
92 18-07-2006 15:18:01 33.7 C 20 % 7.63 C
93 18-07-2006 15:28:01 33.9 C 20 % 7.8 C
94 18-07-2006 15:38:01 34.1 C 20 % 7.96 C
95 18-07-2006 15:48:02 33.9 C 20 % 7.8 C
96 18-07-2006 15:58:02 34.4 C 20 % 8.2 C
97 18-07-2006 16:08:02 34.5 C 20 % 8.28 C
98 18-07-2006 16:18:01 34.7 C 20 % 8.45 C
99 18-07-2006 16:28:01 34.9 C 20 % 8.61 C
100 18-07-2006 16:38:01 34.9 C 20 % 8.61 C
Sensor: Nr:Datum:Temp:Feuchte:Taupunkt:
Aussen-T/F 101 18-07-2006 16:48:02 34.4 C 20 % 8.2 C
102 18-07-2006 16:58:02 34.9 C 20 % 8.61 C
103 18-07-2006 17:08:02 35 C 20 % 8.69 C
104 18-07-2006 17:18:02 35.2 C 20 % 8.86 C
105 18-07-2006 17:28:02 35.2 C 20 % 8.86 C
106 18-07-2006 17:38:02 35.2 C 20 % 8.86 C
107 18-07-2006 17:48:02 34.8 C 20 % 8.53 C
108 18-07-2006 17:58:02 35.1 C 20 % 8.77 C
109 18-07-2006 18:08:02 35.2 C 20 % 8.86 C
110 18-07-2006 18:18:02 35.3 C 20 % 8.94 C
111 18-07-2006 18:28:02 35.2 C 20 % 8.86 C
112 18-07-2006 18:38:02 35.2 C 20 % 8.86 C
113 18-07-2006 18:48:02 35.5 C 20 % 9.1 C
114 18-07-2006 18:58:02 35.2 C 20 % 8.86 C
115 18-07-2006 19:08:02 35.2 C 20 % 8.86 C
116 18-07-2006 19:18:02 35 C 20 % 8.69 C
117 18-07-2006 19:28:02 34.9 C 20 % 8.61 C
118 18-07-2006 19:38:03 34.7 C 20 % 8.45 C
119 18-07-2006 19:48:02 34.7 C 20 % 8.45 C
120 18-07-2006 19:58:02 34.6 C 20 % 8.37 C
121 18-07-2006 20:08:02 34.5 C 20 % 8.28 C
122 18-07-2006 20:18:02 34.2 C 20 % 8.04 C
123 18-07-2006 20:28:02 33.9 C 20 % 7.8 C
124 18-07-2006 20:38:03 33.5 C 20 % 7.47 C
125 18-07-2006 20:48:02 32.7 C 20 % 6.81 C
Sensor: Nr:Datum:Temp:Feuchte:Taupunkt:
Aussen-T/F 126 18-07-2006 20:58:02 32.3 C 20 % 6.49 C
127 18-07-2006 21:08:02 31.7 C 20 % 6 C
128 18-07-2006 21:18:02 31 C 20 % 5.42 C
129 18-07-2006 21:28:02 30.8 C 20 % 5.26 C
130 18-07-2006 21:38:03 30.5 C 21 % 5.72 C
131 18-07-2006 21:48:03 30.2 C 22 % 6.14 C
132 18-07-2006 21:58:03 29.6 C 23 % 6.28 C
133 18-07-2006 22:08:02 29.1 C 24 % 6.48 C
134 18-07-2006 22:18:02 28.2 C 24 % 5.73 C
135 18-07-2006 22:28:02 27.6 C 26 % 6.38 C
136 18-07-2006 22:38:02 27.5 C 26 % 6.3 C
137 18-07-2006 22:48:01 27.6 C 26 % 6.38 C
138 18-07-2006 22:58:01 27.2 C 28 % 7.12 C
139 18-07-2006 23:08:01 26.9 C 30 % 7.87 C
140 18-07-2006 23:18:01 26.3 C 31 % 7.83 C
141 18-07-2006 23:28:01 26.2 C 31 % 7.75 C
142 18-07-2006 23:38:02 25.9 C 32 % 7.95 C
143 18-07-2006 23:48:02 25.4 C 33 % 7.97 C
144 18-07-2006 23:58:02 25 C 35 % 8.48 C
145 19-07-2006 00:08:02 24.5 C 38 % 9.26 C
146 19-07-2006 00:18:03 24.1 C 39 % 9.29 C
147 19-07-2006 00:28:03 23.9 C 40 % 9.49 C
148 19-07-2006 00:38:03 23.8 C 40 % 9.4 C
149 19-07-2006 00:48:02 23.7 C 40 % 9.31 C
150 19-07-2006 00:58:02 23.5 C 41 % 9.5 C
Sensor: Nr:Datum:Temp:Feuchte:Taupunkt:
Aussen-T/F 151 19-07-2006 01:08:03 23.2 C 41 % 9.23 C
152 19-07-2006 01:18:03 23.1 C 41 % 9.14 C
153 19-07-2006 01:28:03 22.8 C 41 % 8.87 C
154 19-07-2006 01:38:02 22.6 C 41 % 8.69 C
155 19-07-2006 01:48:02 22.5 C 44 % 9.65 C
156 19-07-2006 01:58:02 22.1 C 43 % 8.95 C
157 19-07-2006 02:08:02 22 C 43 % 8.85 C
158 19-07-2006 02:18:02 21.8 C 44 % 9.01 C
159 19-07-2006 02:28:02 21.6 C 45 % 9.17 C
160 19-07-2006 02:38:02 21.3 C 45 % 8.89 C
161 19-07-2006 02:49:04 21 C 45 % 8.62 C
162 19-07-2006 02:59:04 20.9 C 47 % 9.17 C
163 19-07-2006 03:09:04 20.4 C 49 % 9.34 C
164 19-07-2006 03:19:04 20.4 C 49 % 9.34 C
165 19-07-2006 03:29:04 20.1 C 49 % 9.06 C
166 19-07-2006 03:39:02 20 C 49 % 8.97 C
167 19-07-2006 03:49:02 19.9 C 50 % 9.18 C
168 19-07-2006 03:59:02 19.7 C 51 % 9.29 C
169 19-07-2006 04:09:02 19.6 C 51 % 9.2 C
170 19-07-2006 04:19:01 19.3 C 53 % 9.49 C
171 19-07-2006 04:29:01 19.1 C 54 % 9.58 C
172 19-07-2006 04:39:01 19 C 54 % 9.49 C
173 19-07-2006 04:49:03 18.8 C 55 % 9.58 C
174 19-07-2006 04:59:03 18.7 C 56 % 9.75 C
175 19-07-2006 05:09:03 18.4 C 57 % 9.74 C
Sensor: Nr:Datum:Temp:Feuchte:Taupunkt:
Aussen-T/F 176 19-07-2006 05:19:03 18.2 C 57 % 9.55 C
177 19-07-2006 05:29:03 18.2 C 57 % 9.55 C
178 19-07-2006 05:39:03 18 C 58 % 9.62 C
179 19-07-2006 05:49:01 18 C 58 % 9.62 C
180 19-07-2006 05:59:01 17.9 C 59 % 9.78 C
181 19-07-2006 06:09:01 17.7 C 59 % 9.59 C
182 19-07-2006 06:19:02 17.7 C 60 % 9.84 C
183 19-07-2006 06:29:02 17.7 C 62 % 10.33 C
184 19-07-2006 06:39:02 17.7 C 63 % 10.57 C
185 19-07-2006 06:49:02 17.7 C 63 % 10.57 C
186 19-07-2006 06:59:02 17.7 C 63 % 10.57 C
187 19-07-2006 07:09:02 17.8 C 64 % 10.9 C
188 19-07-2006 07:19:02 18 C 62 % 10.62 C
189 19-07-2006 07:29:02 18 C 62 % 10.62 C
190 19-07-2006 07:39:02 18 C 61 % 10.37 C
191 19-07-2006 07:49:02 18.2 C 61 % 10.56 C
192 19-07-2006 07:59:02 18.3 C 61 % 10.66 C
193 19-07-2006 08:09:02 18.6 C 61 % 10.94 C
194 19-07-2006 08:19:02 18.9 C 61 % 11.22 C
195 19-07-2006 08:29:02 19.2 C 60 % 11.25 C
196 19-07-2006 08:39:01 19.5 C 58 % 11.02 C
197 19-07-2006 08:49:02 19.8 C 58 % 11.3 C
198 19-07-2006 08:59:02 20.3 C 57 % 11.51 C
199 19-07-2006 09:09:02 21 C 55 % 11.62 C
200 19-07-2006 09:19:02 21.7 C 54 % 11.99 C
Sensor: Nr:Datum:Temp:Feuchte:Taupunkt:
Aussen-T/F 201 19-07-2006 09:29:02 22.4 C 52 % 12.07 C
202 19-07-2006 09:39:02 23.1 C 49 % 11.81 C
203 19-07-2006 09:49:02 23.8 C 47 % 11.82 C
204 19-07-2006 09:59:03 24.6 C 44 % 11.54 C
205 19-07-2006 10:09:02 25.6 C 40 % 11 C
206 19-07-2006 10:19:02 26.3 C 39 % 11.25 C
207 19-07-2006 10:29:02 27 C 37 % 11.07 C
208 19-07-2006 10:39:02 27.8 C 36 % 11.37 C
209 19-07-2006 10:49:02 28.4 C 36 % 11.89 C
210 19-07-2006 10:59:03 28.9 C 34 % 11.47 C
211 19-07-2006 11:09:02 29.5 C 30 % 10.11 C
212 19-07-2006 11:19:02 30.1 C 26 % 8.5 C
213 19-07-2006 11:29:02 30.4 C 24 % 7.57 C
214 19-07-2006 11:39:01 30.8 C 21 % 5.96 C
215 19-07-2006 11:49:02 31.4 C 20 % 5.75 C
216 19-07-2006 11:59:02 31.6 C 20 % 5.91 C
217 19-07-2006 12:09:02 31.8 C 20 % 6.08 C
218 19-07-2006 12:19:02 32.1 C 20 % 6.32 C
219 19-07-2006 12:29:02 32.5 C 20 % 6.65 C
220 19-07-2006 12:39:02 32.8 C 20 % 6.9 C
221 19-07-2006 12:49:02 32.9 C 20 % 6.98 C
222 19-07-2006 12:59:03 33.2 C 20 % 7.22 C
223 19-07-2006 13:09:02 33.3 C 20 % 7.3 C
224 19-07-2006 13:19:02 33.7 C 20 % 7.63 C
225 19-07-2006 13:29:02 33.8 C 20 % 7.71 C
Sensor: Nr:Datum:Temp:Feuchte:Taupunkt:
Aussen-T/F 226 19-07-2006 13:39:02 33.8 C 20 % 7.71 C
227 19-07-2006 13:49:02 33.8 C 20 % 7.71 C
228 19-07-2006 13:59:02 33.7 C 20 % 7.63 C
229 19-07-2006 14:09:02 33.3 C 20 % 7.3 C
230 19-07-2006 14:19:02 33 C 20 % 7.06 C
231 19-07-2006 14:29:02 33.1 C 20 % 7.14 C
232 19-07-2006 14:39:02 33.2 C 20 % 7.22 C
233 19-07-2006 14:49:02 33.3 C 20 % 7.3 C
234 19-07-2006 14:59:02 33.9 C 20 % 7.8 C
235 19-07-2006 15:09:02 34.1 C 20 % 7.96 C
236 19-07-2006 15:19:03 34.1 C 20 % 7.96 C
237 19-07-2006 15:29:03 34.3 C 20 % 8.12 C
238 19-07-2006 15:39:02 34.2 C 20 % 8.04 C
239 19-07-2006 15:49:02 34.5 C 20 % 8.28 C
240 19-07-2006 15:59:02 34.8 C 20 % 8.53 C
241 19-07-2006 16:09:02 34.9 C 20 % 8.61 C
242 19-07-2006 16:19:02 34.7 C 20 % 8.45 C
243 19-07-2006 16:29:02 34.6 C 20 % 8.37 C
244 19-07-2006 16:39:02 35.2 C 20 % 8.86 C
245 19-07-2006 16:49:02 35.2 C 20 % 8.86 C
246 19-07-2006 16:59:02 35.2 C 20 % 8.86 C
247 19-07-2006 17:09:02 35 C 20 % 8.69 C
248 19-07-2006 17:19:03 35.2 C 20 % 8.86 C
249 19-07-2006 17:29:03 35.5 C 20 % 9.1 C
250 19-07-2006 17:39:02 35.4 C 20 % 9.02 C
Sensor: Nr:Datum:Temp:Feuchte:Taupunkt:
Aussen-T/F 251 19-07-2006 17:49:02 35.5 C 20 % 9.1 C
252 19-07-2006 17:59:02 35.3 C 20 % 8.94 C
253 19-07-2006 18:09:02 35.4 C 20 % 9.02 C
254 19-07-2006 18:19:02 35.5 C 20 % 9.1 C
255 19-07-2006 18:29:02 35.6 C 20 % 9.18 C
256 19-07-2006 18:39:02 35.5 C 20 % 9.1 C
257 19-07-2006 18:49:02 35.6 C 20 % 9.18 C
258 19-07-2006 18:59:02 35.5 C 20 % 9.1 C
259 19-07-2006 19:09:02 35.6 C 20 % 9.18 C
260 19-07-2006 19:19:02 35.3 C 20 % 8.94 C
261 19-07-2006 19:29:02 35.1 C 20 % 8.77 C
262 19-07-2006 19:39:03 34.8 C 20 % 8.53 C
263 19-07-2006 19:49:02 34.7 C 20 % 8.45 C
264 19-07-2006 19:59:02 34.5 C 20 % 8.28 C
265 19-07-2006 20:09:02 34.2 C 20 % 8.04 C
266 19-07-2006 20:19:02 34.1 C 20 % 7.96 C
267 19-07-2006 20:29:02 33.9 C 20 % 7.8 C
268 19-07-2006 20:39:02 33.2 C 20 % 7.22 C
269 19-07-2006 20:49:02 32.6 C 20 % 6.73 C
270 19-07-2006 20:59:03 32.1 C 20 % 6.32 C
271 19-07-2006 21:09:02 31.8 C 20 % 6.08 C
272 19-07-2006 21:19:02 31.4 C 20 % 5.75 C
273 19-07-2006 21:29:02 30.8 C 21 % 5.96 C
274 19-07-2006 21:39:03 30.6 C 21 % 5.8 C
275 19-07-2006 21:49:02 30.3 C 22 % 6.22 C
Sensor: Nr:Datum:Temp:Feuchte:Taupunkt:
Aussen-T/F 276 19-07-2006 21:59:02 30.1 C 22 % 6.06 C
277 19-07-2006 22:09:02 30 C 21 % 5.3 C
278 19-07-2006 22:19:02 29.8 C 22 % 5.81 C
279 19-07-2006 22:29:02 29.7 C 23 % 6.37 C
280 19-07-2006 22:39:02 29.5 C 22 % 5.56 C
281 19-07-2006 22:49:02 29.3 C 23 % 6.03 C
282 19-07-2006 22:59:02 29.2 C 23 % 5.95 C
283 19-07-2006 23:09:02 29 C 23 % 5.78 C
284 19-07-2006 23:19:01 29 C 24 % 6.4 C
285 19-07-2006 23:29:01 28.9 C 25 % 6.91 C
286 19-07-2006 23:39:01 28.6 C 26 % 7.23 C
287 19-07-2006 23:49:02 28.4 C 25 % 6.49 C
288 19-07-2006 23:59:02 28.3 C 25 % 6.4 C
289 20-07-2006 00:09:01 27.9 C 27 % 7.18 C
290 20-07-2006 00:19:02 27.7 C 27 % 7.01 C
291 20-07-2006 00:29:03 27.3 C 28 % 7.2 C
292 20-07-2006 00:39:02 27.1 C 29 % 7.55 C
293 20-07-2006 00:49:02 26.7 C 31 % 8.18 C
294 20-07-2006 00:59:02 26.5 C 31 % 8.01 C
295 20-07-2006 01:09:02 26.2 C 31 % 7.75 C
296 20-07-2006 01:19:02 25.7 C 33 % 8.23 C
297 20-07-2006 01:29:02 25.7 C 33 % 8.23 C
298 20-07-2006 01:39:02 25.4 C 33 % 7.97 C
299 20-07-2006 01:49:03 25.2 C 34 % 8.23 C
300 20-07-2006 01:59:03 25.1 C 34 % 8.15 C
Sensor: Nr:Datum:Temp:Feuchte:Taupunkt:
Aussen-T/F 301 20-07-2006 02:09:03 24.9 C 35 % 8.4 C
302 20-07-2006 02:19:03 24.7 C 36 % 8.64 C
303 20-07-2006 02:29:03 24.5 C 36 % 8.46 C
304 20-07-2006 02:39:02 24.2 C 36 % 8.2 C
305 20-07-2006 02:50:04 24.1 C 36 % 8.11 C
306 20-07-2006 03:00:04 24 C 36 % 8.02 C
307 20-07-2006 03:10:03 23.8 C 36 % 7.84 C
308 20-07-2006 03:20:03 23.7 C 37 % 8.16 C
309 20-07-2006 03:30:03 23.5 C 38 % 8.37 C
310 20-07-2006 03:40:02 23.3 C 38 % 8.19 C
311 20-07-2006 03:50:02 23 C 40 % 8.68 C
312 20-07-2006 04:00:02 22.9 C 41 % 8.96 C
313 20-07-2006 04:10:02 22.8 C 41 % 8.87 C
314 20-07-2006 04:20:02 22.7 C 41 % 8.78 C
315 20-07-2006 04:30:02 22.6 C 42 % 9.05 C
316 20-07-2006 04:40:02 22.3 C 42 % 8.78 C
317 20-07-2006 04:50:03 22 C 45 % 9.53 C
318 20-07-2006 05:00:03 21.9 C 46 % 9.77 C
319 20-07-2006 05:10:02 21.8 C 45 % 9.35 C
320 20-07-2006 05:20:02 21.6 C 45 % 9.17 C
321 20-07-2006 05:30:02 21.5 C 46 % 9.4 C
322 20-07-2006 05:40:02 21.4 C 47 % 9.63 C
323 20-07-2006 05:50:02 21.5 C 47 % 9.72 C
324 20-07-2006 06:00:02 21.4 C 48 % 9.94 C
325 20-07-2006 06:10:02 21.4 C 50 % 10.55 C
Sensor: Nr:Datum:Temp:Feuchte:Taupunkt:
Aussen-T/F 326 20-07-2006 06:20:02 21.4 C 49 % 10.25 C
327 20-07-2006 06:30:02 21.5 C 49 % 10.34 C
328 20-07-2006 06:40:02 21.6 C 49 % 10.44 C
329 20-07-2006 06:50:01 21.8 C 49 % 10.62 C
330 20-07-2006 07:00:01 21.8 C 50 % 10.92 C
331 20-07-2006 07:10:02 21.8 C 51 % 11.22 C
332 20-07-2006 07:20:02 21.7 C 51 % 11.13 C
333 20-07-2006 07:30:02 21.7 C 52 % 11.42 C
334 20-07-2006 07:40:02 21.7 C 53 % 11.71 C
335 20-07-2006 07:50:03 21.9 C 53 % 11.89 C
336 20-07-2006 08:00:03 22.2 C 50 % 11.29 C
337 20-07-2006 08:10:03 22.2 C 48 % 10.67 C
338 20-07-2006 08:20:02 22.3 C 48 % 10.77 C
339 20-07-2006 08:30:03 22.9 C 46 % 10.67 C
340 20-07-2006 08:40:02 23.2 C 45 % 10.62 C
341 20-07-2006 08:50:02 23.6 C 45 % 10.98 C
342 20-07-2006 09:00:02 23.8 C 44 % 10.82 C
343 20-07-2006 09:10:02 24.2 C 42 % 10.48 C
344 20-07-2006 09:20:01 24.6 C 43 % 11.2 C
345 20-07-2006 09:30:01 25.1 C 40 % 10.56 C
346 20-07-2006 09:40:01 25.8 C 39 % 10.8 C
347 20-07-2006 09:50:02 26.5 C 39 % 11.42 C
348 20-07-2006 10:00:03 26.9 C 36 % 10.57 C
349 20-07-2006 10:10:01 28 C 37 % 11.96 C
350 20-07-2006 10:20:01 28.6 C 35 % 11.64 C
Sensor: Nr:Datum:Temp:Feuchte:Taupunkt:
Aussen-T/F 351 20-07-2006 10:30:01 29.1 C 34 % 11.64 C
352 20-07-2006 10:40:01 29.4 C 32 % 10.99 C
353 20-07-2006 10:50:02 30.1 C 31 % 11.12 C
354 20-07-2006 11:00:02 30.7 C 30 % 11.14 C
355 20-07-2006 11:10:02 31 C 29 % 10.89 C
356 20-07-2006 11:20:01 31.3 C 27 % 10.07 C
357 20-07-2006 11:30:01 31.5 C 27 % 10.24 C
358 20-07-2006 11:40:01 31.8 C 26 % 9.93 C
359 20-07-2006 11:50:02 31.9 C 25 % 9.43 C
360 20-07-2006 12:00:02 31.6 C 26 % 9.76 C
361 20-07-2006 12:10:02 31.8 C 25 % 9.35 C
362 20-07-2006 12:20:01 32 C 24 % 8.91 C
363 20-07-2006 12:30:01 32 C 23 % 8.28 C
364 20-07-2006 12:40:01 32.1 C 22 % 7.71 C
365 20-07-2006 12:50:02 32.4 C 22 % 7.96 C
366 20-07-2006 13:00:02 32.3 C 22 % 7.88 C
367 20-07-2006 13:10:02 32.6 C 22 % 8.13 C
368 20-07-2006 13:20:02 32.8 C 21 % 7.61 C
369 20-07-2006 13:30:02 32.9 C 20 % 6.98 C
370 20-07-2006 13:40:02 32.9 C 21 % 7.69 C
371 20-07-2006 13:50:02 32.7 C 21 % 7.53 C
372 20-07-2006 14:00:02 32.6 C 22 % 8.13 C
373 20-07-2006 14:10:02 32.7 C 21 % 7.53 C
374 20-07-2006 14:20:02 32.7 C 21 % 7.53 C
375 20-07-2006 14:30:02 33 C 21 % 7.77 C
Sensor: Nr:Datum:Temp:Feuchte:Taupunkt:
Aussen-T/F 376 20-07-2006 14:40:01 32.6 C 21 % 7.44 C
377 20-07-2006 14:50:02 33.1 C 20 % 7.14 C
378 20-07-2006 15:00:02 33.1 C 20 % 7.14 C
379 20-07-2006 15:10:02 33.3 C 20 % 7.3 C
380 20-07-2006 15:20:02 33.3 C 20 % 7.3 C
381 20-07-2006 15:30:02 33.3 C 20 % 7.3 C
382 20-07-2006 15:40:02 33.7 C 20 % 7.63 C
383 20-07-2006 15:50:02 33.7 C 20 % 7.63 C
384 20-07-2006 16:00:03 33.7 C 20 % 7.63 C
385 20-07-2006 16:10:02 33.7 C 20 % 7.63 C
386 20-07-2006 16:20:02 33.7 C 20 % 7.63 C
387 20-07-2006 16:30:02 34 C 20 % 7.88 C
388 20-07-2006 16:40:02 33.8 C 20 % 7.71 C
389 20-07-2006 16:50:03 33.9 C 20 % 7.8 C
390 20-07-2006 17:00:04 33.4 C 20 % 7.39 C
391 20-07-2006 17:10:03 32.7 C 21 % 7.53 C
392 20-07-2006 17:20:02 33.1 C 21 % 7.85 C
393 20-07-2006 17:30:02 33.5 C 20 % 7.47 C
394 20-07-2006 17:40:02 33 C 23 % 9.11 C
395 20-07-2006 17:50:02 32.6 C 25 % 10.02 C
396 20-07-2006 18:00:02 32.2 C 26 % 10.27 C
397 20-07-2006 18:10:02 32.1 C 27 % 10.75 C
398 20-07-2006 18:20:02 31.2 C 29 % 11.06 C
399 20-07-2006 18:30:03 31.7 C 29 % 11.48 C
400 20-07-2006 18:40:03 32.7 C 25 % 10.1 C
Sensor: Nr:Datum:Temp:Feuchte:Taupunkt:
Aussen-T/F 401 20-07-2006 18:50:03 32.6 C 25 % 10.02 C
402 20-07-2006 19:00:03 32.1 C 27 % 10.75 C
403 20-07-2006 19:10:03 32.1 C 28 % 11.3 C
404 20-07-2006 19:20:03 32.5 C 26 % 10.52 C
405 20-07-2006 19:30:03 32.5 C 26 % 10.52 C
406 20-07-2006 19:40:03 31.9 C 28 % 11.13 C
407 20-07-2006 19:50:03 31.8 C 29 % 11.57 C
408 20-07-2006 20:00:03 31.8 C 30 % 12.08 C
409 20-07-2006 20:10:03 31.3 C 33 % 13.1 C
410 20-07-2006 20:20:02 30.9 C 35 % 13.66 C
411 20-07-2006 20:30:03 30.6 C 35 % 13.39 C
412 20-07-2006 20:40:03 30.4 C 37 % 14.07 C
413 20-07-2006 20:50:03 30.1 C 36 % 13.39 C
414 20-07-2006 21:00:03 29.6 C 38 % 13.78 C
415 20-07-2006 21:10:03 29.6 C 39 % 14.18 C
416 20-07-2006 21:20:02 29.4 C 39 % 14 C
417 20-07-2006 21:30:02 29.1 C 40 % 14.12 C
418 20-07-2006 21:40:02 28.5 C 42 % 14.34 C
419 20-07-2006 21:50:01 28.3 C 42 % 14.16 C
420 20-07-2006 22:00:01 28.1 C 42 % 13.98 C
421 20-07-2006 22:10:01 27.9 C 44 % 14.52 C
422 20-07-2006 22:20:00 27.6 C 45 % 14.6 C
423 20-07-2006 22:30:00 27.6 C 45 % 14.6 C
424 20-07-2006 22:40:01 27.4 C 46 % 14.76 C
425 20-07-2006 22:50:01 27.2 C 47 % 14.91 C
Sensor: Nr:Datum:Temp:Feuchte:Taupunkt:
Aussen-T/F 426 20-07-2006 23:00:01 27.1 C 47 % 14.82 C
427 20-07-2006 23:10:01 26.9 C 49 % 15.28 C
428 20-07-2006 23:20:01 26.6 C 50 % 15.32 C
429 20-07-2006 23:30:01 26.4 C 50 % 15.14 C
430 20-07-2006 23:40:01 26.3 C 51 % 15.36 C
431 20-07-2006 23:50:01 26 C 52 % 15.38 C
432 21-07-2006 00:00:01 25.8 C 53 % 15.5 C
433 21-07-2006 00:10:02 25.6 C 53 % 15.31 C
434 21-07-2006 00:20:01 25.3 C 54 % 15.33 C
435 21-07-2006 00:30:01 25.1 C 54 % 15.14 C
436 21-07-2006 00:40:01 25 C 56 % 15.61 C
437 21-07-2006 00:50:02 24.8 C 57 % 15.7 C
438 21-07-2006 01:00:02 24.6 C 57 % 15.52 C
439 21-07-2006 01:10:02 24.5 C 58 % 15.7 C
440 21-07-2006 01:20:02 24.4 C 58 % 15.6 C
441 21-07-2006 01:30:02 24.2 C 59 % 15.68 C
442 21-07-2006 01:40:02 24.2 C 58 % 15.42 C
443 21-07-2006 01:50:01 24.1 C 58 % 15.32 C
444 21-07-2006 02:00:01 23.9 C 60 % 15.66 C
445 21-07-2006 02:10:01 23.6 C 61 % 15.64 C
446 21-07-2006 02:20:02 23.4 C 61 % 15.45 C
447 21-07-2006 02:30:02 23.3 C 61 % 15.36 C
448 21-07-2006 02:40:02 23.3 C 63 % 15.86 C
449 21-07-2006 02:51:04 23 C 63 % 15.58 C
450 21-07-2006 03:01:04 22.9 C 64 % 15.73 C
Sensor: Nr:Datum:Temp:Feuchte:Taupunkt:
Aussen-T/F 451 21-07-2006 03:11:03 22.8 C 64 % 15.64 C
452 21-07-2006 03:21:03 22.6 C 65 % 15.69 C
453 21-07-2006 03:31:03 22.4 C 65 % 15.5 C
454 21-07-2006 03:41:03 22.3 C 65 % 15.4 C
455 21-07-2006 03:51:03 22.2 C 66 % 15.55 C
456 21-07-2006 04:01:03 22 C 67 % 15.59 C
457 21-07-2006 04:11:03 21.9 C 68 % 15.73 C
458 21-07-2006 04:21:02 21.8 C 69 % 15.86 C
459 21-07-2006 04:31:02 21.7 C 69 % 15.77 C
460 21-07-2006 04:41:02 21.6 C 69 % 15.67 C
461 21-07-2006 04:51:02 21.5 C 69 % 15.57 C
462 21-07-2006 05:01:02 21.4 C 70 % 15.7 C
463 21-07-2006 05:11:02 21.3 C 70 % 15.61 C
464 21-07-2006 05:21:02 21.2 C 70 % 15.51 C
465 21-07-2006 05:31:02 21.1 C 71 % 15.64 C
466 21-07-2006 05:41:02 21.1 C 71 % 15.64 C
467 21-07-2006 05:51:02 21 C 71 % 15.54 C
468 21-07-2006 06:01:01 21 C 71 % 15.54 C
469 21-07-2006 06:11:01 21 C 71 % 15.54 C
470 21-07-2006 06:21:01 20.9 C 73 % 15.88 C
471 21-07-2006 06:31:01 20.8 C 73 % 15.78 C
472 21-07-2006 06:41:01 20.9 C 73 % 15.88 C
473 21-07-2006 06:51:02 20.9 C 74 % 16.09 C
474 21-07-2006 07:01:02 21 C 73 % 15.98 C
475 21-07-2006 07:11:02 21.1 C 72 % 15.86 C
Sensor: Nr:Datum:Temp:Feuchte:Taupunkt:
Aussen-T/F 476 21-07-2006 07:21:02 21.1 C 72 % 15.86 C
477 21-07-2006 07:31:01 21.2 C 72 % 15.95 C
478 21-07-2006 07:41:01 21.3 C 71 % 15.83 C
479 21-07-2006 07:51:02 21.5 C 71 % 16.02 C
480 21-07-2006 08:01:02 21.7 C 70 % 15.99 C
481 21-07-2006 08:11:02 22 C 68 % 15.82 C
482 21-07-2006 08:21:02 22.3 C 68 % 16.11 C
483 21-07-2006 08:31:02 22.5 C 66 % 15.83 C
484 21-07-2006 08:41:02 22.8 C 65 % 15.88 C
485 21-07-2006 08:51:02 23 C 64 % 15.82 C
486 21-07-2006 09:01:02 23.4 C 62 % 15.71 C
487 21-07-2006 09:11:02 23.9 C 61 % 15.92 C
488 21-07-2006 09:21:02 24.5 C 59 % 15.96 C
489 21-07-2006 09:31:02 25.1 C 56 % 15.71 C
490 21-07-2006 09:41:02 25.7 C 54 % 15.7 C
491 21-07-2006 09:51:02 26.1 C 51 % 15.17 C
492 21-07-2006 10:01:02 26.9 C 50 % 15.6 C
493 21-07-2006 10:11:02 27.2 C 47 % 14.91 C
494 21-07-2006 10:21:02 27.7 C 46 % 15.03 C
495 21-07-2006 10:31:03 28.3 C 43 % 14.53 C
496 21-07-2006 10:41:03 28.6 C 41 % 14.06 C
497 21-07-2006 10:51:02 29 C 37 % 12.84 C
498 21-07-2006 11:01:02 29.5 C 39 % 14.09 C
499 21-07-2006 11:11:02 29.9 C 38 % 14.04 C
500 21-07-2006 11:21:02 30.1 C 37 % 13.81 C
Sensor: Nr:Datum:Temp:Feuchte:Taupunkt:
Aussen-T/F 501 21-07-2006 11:31:03 30.3 C 36 % 13.56 C
502 21-07-2006 11:41:03 30.4 C 36 % 13.65 C
503 21-07-2006 11:51:02 30.6 C 34 % 12.95 C
504 21-07-2006 12:01:02 31.2 C 32 % 12.55 C
505 21-07-2006 12:11:02 31.7 C 31 % 12.5 C
506 21-07-2006 12:21:02 32.1 C 29 % 11.83 C
507 21-07-2006 12:31:03 32.1 C 27 % 10.75 C
508 21-07-2006 12:41:03 32.5 C 25 % 9.94 C
509 21-07-2006 12:51:03 32.7 C 26 % 10.69 C
510 21-07-2006 13:01:02 32.9 C 24 % 9.66 C
511 21-07-2006 13:11:02 33.1 C 23 % 9.2 C
512 21-07-2006 13:21:02 33.4 C 22 % 8.79 C
513 21-07-2006 13:31:02 33.4 C 21 % 8.1 C
514 21-07-2006 13:41:02 33.7 C 21 % 8.35 C
515 21-07-2006 13:51:02 33.2 C 21 % 7.94 C
516 21-07-2006 14:01:01 33.3 C 21 % 8.02 C
517 21-07-2006 14:11:01 33.1 C 22 % 8.54 C
518 21-07-2006 14:21:01 32.9 C 22 % 8.37 C
519 21-07-2006 14:31:02 33.3 C 21 % 8.02 C
520 21-07-2006 14:41:02 33.7 C 20 % 7.63 C
521 21-07-2006 14:51:02 34 C 20 % 7.88 C
522 21-07-2006 15:01:01 34.2 C 20 % 8.04 C
523 21-07-2006 15:11:01 33.5 C 20 % 7.47 C
524 21-07-2006 15:21:01 33.4 C 20 % 7.39 C
525 21-07-2006 15:31:02 34 C 20 % 7.88 C
Sensor: Nr:Datum:Temp:Feuchte:Taupunkt:
Aussen-T/F 526 21-07-2006 15:41:02 33.7 C 20 % 7.63 C
527 21-07-2006 15:51:02 34.1 C 20 % 7.96 C
528 21-07-2006 16:01:02 34.4 C 20 % 8.2 C
529 21-07-2006 16:11:02 33.3 C 20 % 7.3 C
530 21-07-2006 16:21:02 33.9 C 20 % 7.8 C
531 21-07-2006 16:31:03 34.5 C 20 % 8.28 C
532 21-07-2006 16:41:03 34.6 C 20 % 8.37 C
533 21-07-2006 16:51:02 34.7 C 20 % 8.45 C
534 21-07-2006 17:01:02 34.8 C 20 % 8.53 C
535 21-07-2006 17:11:02 34.8 C 20 % 8.53 C
536 21-07-2006 17:21:02 34.2 C 20 % 8.04 C
537 21-07-2006 17:31:01 34.5 C 20 % 8.28 C
538 21-07-2006 17:41:01 34.2 C 20 % 8.04 C
539 21-07-2006 17:51:02 34.6 C 20 % 8.37 C
540 21-07-2006 18:01:02 33.9 C 20 % 7.8 C
541 21-07-2006 18:11:02 33.9 C 20 % 7.8 C
542 21-07-2006 18:21:02 34.5 C 20 % 8.28 C
543 21-07-2006 18:31:02 34.6 C 20 % 8.37 C
544 21-07-2006 18:41:02 34.8 C 20 % 8.53 C
545 21-07-2006 18:51:02 34.2 C 20 % 8.04 C
546 21-07-2006 19:01:02 33.7 C 20 % 7.63 C
547 21-07-2006 19:11:02 33.7 C 20 % 7.63 C
548 21-07-2006 19:21:02 33.9 C 20 % 7.8 C
549 21-07-2006 19:31:03 33.8 C 20 % 7.71 C
550 21-07-2006 19:41:03 33.3 C 20 % 7.3 C
Sensor: Nr:Datum:Temp:Feuchte:Taupunkt:
Aussen-T/F 551 21-07-2006 19:51:03 33.4 C 20 % 7.39 C
552 21-07-2006 20:01:03 33.1 C 20 % 7.14 C
553 21-07-2006 20:11:03 32.6 C 20 % 6.73 C
554 21-07-2006 20:21:02 32.6 C 20 % 6.73 C
555 21-07-2006 20:31:02 32.6 C 20 % 6.73 C
556 21-07-2006 20:41:02 32.1 C 22 % 7.71 C
557 21-07-2006 20:51:02 31.8 C 22 % 7.46 C
558 21-07-2006 21:01:02 31.3 C 23 % 7.7 C
559 21-07-2006 21:11:02 30.7 C 25 % 8.42 C
560 21-07-2006 21:21:02 30.2 C 26 % 8.58 C
561 21-07-2006 21:31:02 29.9 C 27 % 8.88 C
562 21-07-2006 21:41:02 29.9 C 28 % 9.42 C
563 21-07-2006 21:51:02 29.8 C 27 % 8.8 C
564 21-07-2006 22:01:02 29.4 C 29 % 9.52 C
565 21-07-2006 22:11:02 29.1 C 29 % 9.26 C
566 21-07-2006 22:21:02 28.9 C 30 % 9.59 C
567 21-07-2006 22:31:02 28.7 C 31 % 9.91 C
568 21-07-2006 22:41:02 28.3 C 31 % 9.56 C
569 21-07-2006 22:51:02 28.2 C 31 % 9.48 C
570 21-07-2006 23:01:02 28.1 C 32 % 9.86 C
571 21-07-2006 23:11:02 27.9 C 33 % 10.15 C
572 21-07-2006 23:21:01 27.7 C 33 % 9.97 C
573 21-07-2006 23:31:02 27.5 C 34 % 10.24 C
574 21-07-2006 23:41:02 27.3 C 34 % 10.07 C
575 21-07-2006 23:51:02 27.2 C 35 % 10.42 C
Sensor: Nr:Datum:Temp:Feuchte:Taupunkt:
Aussen-T/F 576 22-07-2006 00:01:03 26.9 C 35 % 10.15 C
577 22-07-2006 00:11:03 26.7 C 36 % 10.4 C
578 22-07-2006 00:21:02 26.3 C 36 % 10.05 C
579 22-07-2006 00:31:02 26.1 C 37 % 10.28 C
580 22-07-2006 00:41:02 25.8 C 39 % 10.8 C
581 22-07-2006 00:51:02 25.6 C 39 % 10.62 C
582 22-07-2006 01:01:02 25.4 C 39 % 10.45 C
583 22-07-2006 01:11:02 25.2 C 40 % 10.65 C
584 22-07-2006 01:21:02 25 C 40 % 10.47 C
585 22-07-2006 01:31:02 24.8 C 41 % 10.66 C
586 22-07-2006 01:41:02 24.7 C 42 % 10.93 C
587 22-07-2006 01:51:02 24.5 C 43 % 11.11 C
588 22-07-2006 02:01:02 24.1 C 44 % 11.09 C
589 22-07-2006 02:11:02 23.9 C 46 % 11.58 C
590 22-07-2006 02:21:03 23.5 C 47 % 11.54 C
591 22-07-2006 02:31:02 23.5 C 47 % 11.54 C
592 22-07-2006 02:41:02 23.5 C 47 % 11.54 C
593 22-07-2006 02:52:03 23.4 C 48 % 11.77 C
594 22-07-2006 03:02:03 23.1 C 49 % 11.81 C
595 22-07-2006 03:12:04 22.9 C 50 % 11.93 C
596 22-07-2006 03:22:04 22.9 C 51 % 12.23 C
597 22-07-2006 03:32:02 22.8 C 51 % 12.14 C
598 22-07-2006 03:42:02 22.8 C 51 % 12.14 C
599 22-07-2006 03:52:02 22.8 C 52 % 12.43 C
600 22-07-2006 04:02:02 22.7 C 52 % 12.34 C
Sensor: Nr:Datum:Temp:Feuchte:Taupunkt:
Aussen-T/F 601 22-07-2006 04:12:02 22.6 C 53 % 12.54 C
602 22-07-2006 04:22:02 22.5 C 53 % 12.45 C
603 22-07-2006 04:32:02 22.5 C 53 % 12.45 C
604 22-07-2006 04:42:02 22.2 C 54 % 12.45 C
605 22-07-2006 04:52:02 22 C 55 % 12.55 C
606 22-07-2006 05:02:02 21.6 C 56 % 12.45 C
607 22-07-2006 05:12:02 21.5 C 57 % 12.63 C
608 22-07-2006 05:22:02 21.4 C 57 % 12.53 C
609 22-07-2006 05:32:02 21.3 C 58 % 12.71 C
610 22-07-2006 05:42:02 21.2 C 59 % 12.87 C
611 22-07-2006 05:52:02 21.1 C 59 % 12.78 C
612 22-07-2006 06:02:02 20.9 C 60 % 12.85 C
613 22-07-2006 06:12:03 20.9 C 60 % 12.85 C
614 22-07-2006 06:22:02 20.9 C 61 % 13.1 C
615 22-07-2006 06:32:02 21 C 60 % 12.94 C
616 22-07-2006 06:42:02 21.1 C 60 % 13.04 C
617 22-07-2006 06:52:02 21.2 C 61 % 13.38 C
618 22-07-2006 07:02:02 21.2 C 60 % 13.13 C
619 22-07-2006 07:12:02 21.2 C 60 % 13.13 C
620 22-07-2006 07:22:02 21.4 C 59 % 13.06 C
621 22-07-2006 07:32:03 21.6 C 60 % 13.51 C
622 22-07-2006 07:42:03 21.6 C 59 % 13.25 C
623 22-07-2006 07:52:02 22 C 58 % 13.36 C
624 22-07-2006 08:02:02 21.9 C 58 % 13.27 C
625 22-07-2006 08:12:02 22 C 57 % 13.09 C
Sensor: Nr:Datum:Temp:Feuchte:Taupunkt:
Aussen-T/F 626 22-07-2006 08:22:02 22.2 C 57 % 13.28 C
627 22-07-2006 08:32:02 22.5 C 56 % 13.29 C
628 22-07-2006 08:42:03 22.9 C 54 % 13.1 C
629 22-07-2006 08:52:03 23.2 C 53 % 13.09 C
630 22-07-2006 09:02:03 23.7 C 52 % 13.26 C
631 22-07-2006 09:12:03 24.2 C 51 % 13.43 C
632 22-07-2006 09:22:02 25 C 49 % 13.55 C
633 22-07-2006 09:32:02 25.6 C 48 % 13.78 C
634 22-07-2006 09:42:02 26.1 C 44 % 12.9 C
635 22-07-2006 09:52:01 27 C 42 % 13 C
636 22-07-2006 10:02:02 27.6 C 39 % 12.4 C
637 22-07-2006 10:12:02 28.5 C 37 % 12.4 C
638 22-07-2006 10:22:02 28.8 C 37 % 12.66 C
639 22-07-2006 10:32:02 29.4 C 35 % 12.34 C
640 22-07-2006 10:42:03 30 C 33 % 11.97 C
641 22-07-2006 10:52:02 30.1 C 33 % 12.06 C
642 22-07-2006 11:02:02 30.7 C 31 % 11.63 C
643 22-07-2006 11:12:02 31 C 31 % 11.89 C
644 22-07-2006 11:22:02 31.3 C 30 % 11.65 C
645 22-07-2006 11:32:02 31.5 C 28 % 10.79 C
646 22-07-2006 11:42:02 31.7 C 27 % 10.41 C
647 22-07-2006 11:52:03 31.9 C 26 % 10.02 C
648 22-07-2006 12:02:03 32.3 C 26 % 10.35 C
649 22-07-2006 12:12:03 32.6 C 26 % 10.61 C
650 22-07-2006 12:22:02 33 C 22 % 8.46 C
Sensor: Nr:Datum:Temp:Feuchte:Taupunkt:
Aussen-T/F 651 22-07-2006 12:32:03 33.1 C 22 % 8.54 C
652 22-07-2006 12:42:04 33.4 C 20 % 7.39 C
653 22-07-2006 12:52:03 33.4 C 20 % 7.39 C
654 22-07-2006 13:02:03 33.3 C 20 % 7.3 C
655 22-07-2006 13:12:03 32.6 C 22 % 8.13 C
656 22-07-2006 13:22:02 32 C 24 % 8.91 C
657 22-07-2006 13:32:03 31.3 C 28 % 10.62 C
658 22-07-2006 13:42:03 30.7 C 32 % 12.11 C
659 22-07-2006 13:52:03 30.6 C 27 % 9.48 C
660 22-07-2006 14:02:03 29.6 C 27 % 8.63 C
661 22-07-2006 14:12:03 29.3 C 28 % 8.91 C
662 22-07-2006 14:22:03 29.2 C 30 % 9.85 C
663 22-07-2006 14:32:03 26 C 44 % 12.81 C
664 22-07-2006 14:42:03 25.6 C 49 % 14.1 C
665 22-07-2006 14:52:03 24.2 C 59 % 15.68 C
666 22-07-2006 15:02:03 23.9 C 64 % 16.68 C
667 22-07-2006 15:12:03 23 C 71 % 17.46 C
668 22-07-2006 15:22:03 21.8 C 81 % 18.39 C
669 22-07-2006 15:32:03 21.6 C 84 % 18.78 C
670 22-07-2006 15:42:03 21.4 C 84 % 18.58 C
671 22-07-2006 15:52:03 21.4 C 86 % 18.96 C
672 22-07-2006 16:02:03 21.1 C 86 % 18.67 C
673 22-07-2006 16:12:03 21.1 C 87 % 18.85 C
674 22-07-2006 16:22:03 21.3 C 88 % 19.23 C
675 22-07-2006 16:32:04 21.2 C 89 % 19.31 C
Sensor: Nr:Datum:Temp:Feuchte:Taupunkt:
Aussen-T/F 676 22-07-2006 16:42:04 21.4 C 89 % 19.51 C
677 22-07-2006 16:52:04 21.6 C 89 % 19.71 C
678 22-07-2006 17:02:04 21.7 C 89 % 19.81 C
679 22-07-2006 17:12:04 22.1 C 89 % 20.2 C
680 22-07-2006 17:22:04 22.2 C 88 % 20.12 C
681 22-07-2006 17:32:04 22.8 C 88 % 20.71 C
682 22-07-2006 17:42:04 22.9 C 84 % 20.05 C
683 22-07-2006 17:52:04 22.9 C 78 % 18.86 C
684 22-07-2006 18:02:04 23 C 77 % 18.75 C
685 22-07-2006 18:12:04 22.8 C 76 % 18.35 C
686 22-07-2006 18:22:02 23.2 C 78 % 19.15 C
687 22-07-2006 18:32:03 23.7 C 77 % 19.43 C
688 22-07-2006 18:42:03 23.7 C 76 % 19.22 C
689 22-07-2006 18:52:02 23.7 C 77 % 19.43 C
690 22-07-2006 19:02:03 24 C 76 % 19.51 C
691 22-07-2006 19:12:04 23.8 C 77 % 19.52 C
692 22-07-2006 19:22:02 24 C 75 % 19.29 C
693 22-07-2006 19:32:06 24.9 C 73 % 19.72 C
694 22-07-2006 19:42:06 26.4 C 65 % 19.29 C
695 22-07-2006 19:52:01 27 C 61 % 18.83 C
696 22-07-2006 20:02:02 27.2 C 58 % 18.22 C
697 22-07-2006 20:12:02 27 C 58 % 18.03 C
698 22-07-2006 20:22:02 27 C 58 % 18.03 C
699 22-07-2006 20:32:02 26.9 C 59 % 18.21 C
700 22-07-2006 20:42:03 26.3 C 62 % 18.44 C
Sensor: Nr:Datum:Temp:Feuchte:Taupunkt:
Aussen-T/F 701 22-07-2006 20:52:02 25.3 C 66 % 18.49 C
702 22-07-2006 21:02:02 24.6 C 69 % 18.53 C
703 22-07-2006 21:12:02 23.9 C 71 % 18.32 C
704 22-07-2006 21:22:03 23 C 73 % 17.9 C
705 22-07-2006 21:32:02 22.7 C 76 % 18.25 C
706 22-07-2006 21:42:02 22.7 C 75 % 18.04 C
707 22-07-2006 21:52:02 22.3 C 76 % 17.86 C
708 22-07-2006 22:02:02 22 C 77 % 17.78 C
709 22-07-2006 22:12:02 21.7 C 78 % 17.7 C
710 22-07-2006 22:22:03 21.5 C 79 % 17.7 C
711 22-07-2006 22:32:02 21.2 C 79 % 17.41 C
712 22-07-2006 22:42:03 20.9 C 80 % 17.32 C
713 22-07-2006 22:52:02 20.8 C 81 % 17.42 C
714 22-07-2006 23:02:02 20.6 C 81 % 17.22 C
715 22-07-2006 23:12:02 20.4 C 81 % 17.03 C
716 22-07-2006 23:22:02 20.4 C 80 % 16.83 C
717 22-07-2006 23:32:02 20.3 C 81 % 16.93 C
718 22-07-2006 23:42:02 20.2 C 82 % 17.03 C
719 22-07-2006 23:52:02 20.4 C 82 % 17.22 C
720 23-07-2006 00:02:02 20.4 C 82 % 17.22 C
721 23-07-2006 00:12:02 20.4 C 82 % 17.22 C
722 23-07-2006 00:22:02 20.4 C 83 % 17.42 C
723 23-07-2006 00:32:02 20.4 C 83 % 17.42 C
724 23-07-2006 00:42:02 20.1 C 84 % 17.31 C
725 23-07-2006 00:52:01 20.1 C 84 % 17.31 C
Sensor: Nr:Datum:Temp:Feuchte:Taupunkt:
Aussen-T/F 726 23-07-2006 01:02:01 20.1 C 84 % 17.31 C
727 23-07-2006 01:12:02 20.1 C 84 % 17.31 C
728 23-07-2006 01:22:02 20 C 84 % 17.21 C
729 23-07-2006 01:32:02 19.9 C 85 % 17.3 C
730 23-07-2006 01:42:02 20 C 84 % 17.21 C
731 23-07-2006 01:52:02 20 C 84 % 17.21 C
732 23-07-2006 02:02:01 20 C 84 % 17.21 C
733 23-07-2006 02:12:01 20 C 84 % 17.21 C
734 23-07-2006 02:22:02 19.9 C 87 % 17.67 C
735 23-07-2006 02:32:02 19.9 C 88 % 17.85 C
736 23-07-2006 02:42:03 19.9 C 88 % 17.85 C
737 23-07-2006 02:53:04 19.9 C 87 % 17.67 C
738 23-07-2006 03:03:04 20 C 85 % 17.4 C
739 23-07-2006 03:13:04 20 C 85 % 17.4 C
740 23-07-2006 03:23:04 20 C 85 % 17.4 C
741 23-07-2006 03:33:02 20 C 84 % 17.21 C
742 23-07-2006 03:43:03 20 C 84 % 17.21 C
743 23-07-2006 03:53:03 20 C 84 % 17.21 C
744 23-07-2006 04:03:02 20 C 83 % 17.02 C
745 23-07-2006 04:13:03 20 C 83 % 17.02 C
746 23-07-2006 04:23:03 20 C 83 % 17.02 C
747 23-07-2006 04:33:03 19.9 C 85 % 17.3 C
748 23-07-2006 04:43:03 20 C 84 % 17.21 C
749 23-07-2006 04:53:02 19.9 C 85 % 17.3 C
750 23-07-2006 05:03:02 19.9 C 86 % 17.49 C
Sensor: Nr:Datum:Temp:Feuchte:Taupunkt:
Aussen-T/F 751 23-07-2006 05:13:02 19.9 C 86 % 17.49 C
752 23-07-2006 05:23:02 19.8 C 86 % 17.39 C
753 23-07-2006 05:33:01 19.7 C 87 % 17.47 C
754 23-07-2006 05:43:01 19.7 C 87 % 17.47 C
755 23-07-2006 05:53:02 19.6 C 87 % 17.38 C
756 23-07-2006 06:03:02 19.7 C 87 % 17.47 C
757 23-07-2006 06:13:02 19.7 C 87 % 17.47 C
758 23-07-2006 06:23:02 19.7 C 87 % 17.47 C
759 23-07-2006 06:33:03 19.8 C 87 % 17.57 C
760 23-07-2006 06:43:03 19.8 C 87 % 17.57 C
761 23-07-2006 06:53:02 20 C 86 % 17.59 C
762 23-07-2006 07:03:02 20.2 C 86 % 17.78 C
763 23-07-2006 07:13:03 20.4 C 86 % 17.98 C
764 23-07-2006 07:23:02 20.6 C 85 % 17.99 C
765 23-07-2006 07:33:02 20.8 C 83 % 17.81 C
766 23-07-2006 07:43:02 20.9 C 83 % 17.9 C
767 23-07-2006 07:53:02 21.1 C 80 % 17.51 C
768 23-07-2006 08:03:02 21.4 C 80 % 17.81 C
769 23-07-2006 08:13:02 21.7 C 79 % 17.9 C
770 23-07-2006 08:23:01 21.7 C 76 % 17.28 C
771 23-07-2006 08:33:02 21.9 C 76 % 17.48 C
772 23-07-2006 08:43:02 22.4 C 73 % 17.32 C
773 23-07-2006 08:53:02 22.5 C 72 % 17.2 C
774 23-07-2006 09:03:02 22.8 C 72 % 17.49 C
775 23-07-2006 09:13:02 22.8 C 73 % 17.71 C
Sensor: Nr:Datum:Temp:Feuchte:Taupunkt:
Aussen-T/F 776 23-07-2006 09:23:02 23 C 70 % 17.23 C
777 23-07-2006 09:33:02 23.3 C 68 % 17.06 C
778 23-07-2006 09:43:02 23.6 C 67 % 17.11 C
779 23-07-2006 09:53:03 23.9 C 64 % 16.68 C
780 23-07-2006 10:03:03 24.4 C 61 % 16.39 C
781 23-07-2006 10:13:03 25.1 C 57 % 15.98 C
782 23-07-2006 10:23:02 26 C 53 % 15.68 C
783 23-07-2006 10:33:02 26 C 52 % 15.38 C
784 23-07-2006 10:43:02 25.9 C 52 % 15.29 C
785 23-07-2006 10:53:02 26.8 C 47 % 14.55 C
786 23-07-2006 11:03:02 27.9 C 43 % 14.17 C
787 23-07-2006 11:13:02 28.8 C 40 % 13.86 C
788 23-07-2006 11:23:02 28.2 C 44 % 14.79 C
789 23-07-2006 11:33:02 28.6 C 45 % 15.5 C
790 23-07-2006 11:43:02 29 C 44 % 15.51 C
791 23-07-2006 11:53:02 28.5 C 46 % 15.75 C
792 23-07-2006 12:03:02 28.7 C 45 % 15.59 C
793 23-07-2006 12:13:02 29.4 C 42 % 15.15 C
794 23-07-2006 12:23:02 29.4 C 41 % 14.77 C
795 23-07-2006 12:33:02 29.7 C 41 % 15.04 C
796 23-07-2006 12:43:02 29.7 C 39 % 14.27 C
797 23-07-2006 12:53:03 30.1 C 38 % 14.22 C
798 23-07-2006 13:03:02 31.1 C 32 % 12.46 C
799 23-07-2006 13:13:03 30.8 C 34 % 13.13 C
800 23-07-2006 13:23:02 31.2 C 32 % 12.55 C
Sensor: Nr:Datum:Temp:Feuchte:Taupunkt:
Aussen-T/F 801 23-07-2006 13:33:02 31.2 C 31 % 12.06 C
802 23-07-2006 13:43:02 31.4 C 29 % 11.23 C
803 23-07-2006 13:53:02 31.7 C 27 % 10.41 C
804 23-07-2006 14:03:01 31.8 C 26 % 9.93 C
805 23-07-2006 14:13:01 31.7 C 27 % 10.41 C
806 23-07-2006 14:23:01 31.3 C 28 % 10.62 C
807 23-07-2006 14:33:01 31.6 C 28 % 10.87 C
808 23-07-2006 14:43:01 31.7 C 27 % 10.41 C
809 23-07-2006 14:53:02 31.9 C 26 % 10.02 C
810 23-07-2006 15:03:02 32 C 26 % 10.1 C
811 23-07-2006 15:13:02 32.1 C 25 % 9.6 C
812 23-07-2006 15:23:38 32.3 C 24 % 9.16 C
813 23-07-2006 15:33:38 32.4 C 24 % 9.24 C
814 23-07-2006 15:43:38 31.8 C 25 % 9.35 C
815 23-07-2006 15:53:38 31.8 C 26 % 9.93 C
816 23-07-2006 16:03:38 32.4 C 24 % 9.24 C
817 23-07-2006 16:13:38 32.5 C 24 % 9.33 C
818 23-07-2006 16:23:38 32.8 C 22 % 8.29 C
819 23-07-2006 16:33:38 32.8 C 23 % 8.95 C
820 23-07-2006 16:43:38 33.2 C 22 % 8.62 C
821 23-07-2006 16:53:38 33.1 C 22 % 8.54 C
822 23-07-2006 17:03:38 32.5 C 24 % 9.33 C
823 23-07-2006 17:13:38 33 C 25 % 10.35 C
824 23-07-2006 17:23:39 34 C 21 % 8.59 C
825 23-07-2006 17:33:39 33.6 C 23 % 9.61 C
Sensor: Nr:Datum:Temp:Feuchte:Taupunkt:
Aussen-T/F 826 23-07-2006 17:43:39 33 C 24 % 9.75 C
827 23-07-2006 17:53:39 32.8 C 25 % 10.19 C
828 23-07-2006 18:03:39 32.7 C 25 % 10.1 C
829 23-07-2006 18:13:39 32.4 C 25 % 9.85 C
830 23-07-2006 18:23:39 32.8 C 24 % 9.58 C
831 23-07-2006 18:33:39 32.5 C 25 % 9.94 C
832 23-07-2006 18:43:39 32.3 C 25 % 9.77 C
833 23-07-2006 18:53:39 31.8 C 28 % 11.04 C
834 23-07-2006 19:03:39 31.1 C 32 % 12.46 C
835 23-07-2006 19:13:39 31.2 C 31 % 12.06 C
836 23-07-2006 19:23:39 31.3 C 31 % 12.15 C
837 23-07-2006 19:33:39 31 C 34 % 13.3 C
838 23-07-2006 19:43:03 30.8 C 33 % 12.67 C
839 23-07-2006 19:53:02 31.2 C 32 % 12.55 C
840 23-07-2006 20:03:02 31.2 C 31 % 12.06 C
841 23-07-2006 20:13:02 31 C 31 % 11.89 C
842 23-07-2006 20:23:03 30.6 C 30 % 11.05 C
843 23-07-2006 20:33:02 30.3 C 29 % 10.29 C
844 23-07-2006 20:43:02 30.1 C 30 % 10.62 C
845 23-07-2006 20:53:02 30 C 30 % 10.54 C
846 23-07-2006 21:03:01 29.8 C 31 % 10.86 C
847 23-07-2006 21:13:01 29.4 C 32 % 10.99 C
848 23-07-2006 21:23:01 29.1 C 32 % 10.73 C
849 23-07-2006 21:33:01 29 C 33 % 11.1 C
850 23-07-2006 21:43:01 28.5 C 34 % 11.12 C
Sensor: Nr:Datum:Temp:Feuchte:Taupunkt:
Aussen-T/F 851 23-07-2006 21:53:02 28.3 C 35 % 11.38 C
852 23-07-2006 22:03:03 28.1 C 35 % 11.2 C
853 23-07-2006 22:13:03 27.8 C 37 % 11.78 C
854 23-07-2006 22:23:02 27.3 C 38 % 11.74 C
855 23-07-2006 22:33:02 26.8 C 38 % 11.3 C
856 23-07-2006 22:43:02 26.7 C 40 % 11.99 C
857 23-07-2006 22:53:02 26.4 C 40 % 11.72 C
858 23-07-2006 23:03:02 26.2 C 40 % 11.54 C
859 23-07-2006 23:13:02 26.1 C 40 % 11.45 C
860 23-07-2006 23:23:02 25.8 C 42 % 11.92 C
861 23-07-2006 23:33:02 25.7 C 42 % 11.83 C
862 23-07-2006 23:43:02 25.5 C 44 % 12.36 C
863 23-07-2006 23:53:01 25.4 C 43 % 11.92 C
864 24-07-2006 00:03:01 25.3 C 44 % 12.18 C
865 24-07-2006 00:13:01 25 C 45 % 12.25 C
866 24-07-2006 00:23:02 24.8 C 47 % 12.73 C
867 24-07-2006 00:33:02 24.6 C 47 % 12.54 C
868 24-07-2006 00:43:02 24.5 C 48 % 12.77 C
869 24-07-2006 00:53:03 24.5 C 49 % 13.09 C
870 24-07-2006 01:03:03 24.1 C 50 % 13.03 C
871 24-07-2006 01:13:03 24.1 C 50 % 13.03 C
872 24-07-2006 01:23:03 23.9 C 52 % 13.45 C
873 24-07-2006 01:33:03 23.9 C 53 % 13.74 C
874 24-07-2006 01:43:03 23.5 C 53 % 13.37 C
875 24-07-2006 01:53:02 23.3 C 55 % 13.76 C
Sensor: Nr:Datum:Temp:Feuchte:Taupunkt:
Aussen-T/F 876 24-07-2006 02:03:01 23.1 C 56 % 13.85 C
877 24-07-2006 02:13:01 23.1 C 57 % 14.12 C
878 24-07-2006 02:23:02 22.8 C 57 % 13.84 C
879 24-07-2006 02:33:02 22.6 C 59 % 14.18 C
880 24-07-2006 02:43:02 22.4 C 60 % 14.26 C
881 24-07-2006 02:54:04 22.1 C 61 % 14.23 C
882 24-07-2006 03:04:04 22.1 C 62 % 14.48 C
883 24-07-2006 03:14:03 22 C 62 % 14.39 C
884 24-07-2006 03:24:03 22 C 63 % 14.63 C
885 24-07-2006 03:34:02 21.8 C 64 % 14.69 C
886 24-07-2006 03:44:02 21.6 C 64 % 14.5 C
887 24-07-2006 03:54:02 21.3 C 67 % 14.93 C
888 24-07-2006 04:04:02 21.1 C 67 % 14.74 C
889 24-07-2006 04:14:02 20.9 C 69 % 15 C
890 24-07-2006 04:24:02 20.9 C 70 % 15.23 C
891 24-07-2006 04:34:02 20.8 C 70 % 15.13 C
892 24-07-2006 04:44:02 20.8 C 70 % 15.13 C
893 24-07-2006 04:54:02 20.6 C 69 % 14.71 C
894 24-07-2006 05:04:01 20.5 C 71 % 15.06 C
895 24-07-2006 05:14:01 20.5 C 71 % 15.06 C
896 24-07-2006 05:24:02 20.3 C 72 % 15.09 C
897 24-07-2006 05:34:02 20.1 C 72 % 14.9 C
898 24-07-2006 05:44:02 20.1 C 72 % 14.9 C
899 24-07-2006 05:54:02 20 C 72 % 14.8 C
900 24-07-2006 06:04:02 19.9 C 73 % 14.92 C
Sensor: Nr:Datum:Temp:Feuchte:Taupunkt:
Aussen-T/F 901 24-07-2006 06:14:02 19.9 C 74 % 15.13 C
902 24-07-2006 06:24:01 19.8 C 75 % 15.24 C
903 24-07-2006 06:34:02 19.7 C 75 % 15.15 C
904 24-07-2006 06:44:02 20 C 74 % 15.23 C
905 24-07-2006 06:54:02 20.3 C 73 % 15.3 C
906 24-07-2006 07:04:02 20.2 C 73 % 15.21 C
907 24-07-2006 07:14:02 20.2 C 73 % 15.21 C
908 24-07-2006 07:24:01 20.2 C 73 % 15.21 C
909 24-07-2006 07:34:01 20.3 C 74 % 15.51 C
910 24-07-2006 07:44:01 20.6 C 73 % 15.59 C
911 24-07-2006 07:54:02 20.8 C 72 % 15.57 C
912 24-07-2006 08:04:02 20.9 C 71 % 15.45 C
913 24-07-2006 08:14:02 21.3 C 70 % 15.61 C
914 24-07-2006 08:24:02 21.6 C 68 % 15.44 C
915 24-07-2006 08:34:02 21.6 C 68 % 15.44 C
916 24-07-2006 08:44:03 21.9 C 68 % 15.73 C
917 24-07-2006 08:54:03 22.1 C 66 % 15.45 C
918 24-07-2006 09:04:03 22.6 C 65 % 15.69 C
919 24-07-2006 09:14:03 23 C 63 % 15.58 C
920 24-07-2006 09:24:02 23.5 C 62 % 15.8 C
921 24-07-2006 09:34:02 23.8 C 61 % 15.83 C
922 24-07-2006 09:44:02 24.2 C 59 % 15.68 C
923 24-07-2006 09:54:02 24.8 C 58 % 15.98 C
924 24-07-2006 10:04:02 25.2 C 55 % 15.52 C
925 24-07-2006 10:14:02 25.9 C 53 % 15.59 C
Sensor: Nr:Datum:Temp:Feuchte:Taupunkt:
Aussen-T/F 926 24-07-2006 10:24:01 26.4 C 49 % 14.83 C
927 24-07-2006 10:34:01 26.9 C 47 % 14.64 C
928 24-07-2006 10:44:01 27.5 C 45 % 14.51 C
929 24-07-2006 10:54:02 27.5 C 43 % 13.81 C
930 24-07-2006 11:04:02 27.9 C 43 % 14.17 C
931 24-07-2006 11:14:02 28.3 C 40 % 13.41 C
932 24-07-2006 11:24:02 28.7 C 39 % 13.38 C
933 24-07-2006 11:34:02 29.2 C 37 % 13.02 C
934 24-07-2006 11:44:02 29.5 C 36 % 12.86 C
935 24-07-2006 11:54:02 30 C 35 % 12.87 C
936 24-07-2006 12:04:02 30.1 C 35 % 12.96 C
937 24-07-2006 12:14:02 30.4 C 33 % 12.32 C
938 24-07-2006 12:24:02 30.9 C 31 % 11.81 C
939 24-07-2006 12:34:03 31.2 C 28 % 10.53 C
940 24-07-2006 12:44:03 31.5 C 27 % 10.24 C
941 24-07-2006 12:54:02 31.7 C 25 % 9.26 C
942 24-07-2006 13:04:02 32.1 C 25 % 9.6 C
943 24-07-2006 13:14:02 32.4 C 23 % 8.61 C
944 24-07-2006 13:24:02 32.8 C 21 % 7.61 C
945 24-07-2006 13:34:02 33.3 C 20 % 7.3 C
946 24-07-2006 13:44:02 32.2 C 22 % 7.79 C
947 24-07-2006 13:54:02 32.3 C 22 % 7.88 C
948 24-07-2006 14:04:01 32.2 C 23 % 8.45 C
949 24-07-2006 14:14:01 31.8 C 24 % 8.74 C
950 24-07-2006 14:24:01 32.1 C 24 % 8.99 C
Sensor: Nr:Datum:Temp:Feuchte:Taupunkt:
Aussen-T/F 951 24-07-2006 14:34:01 32.5 C 22 % 8.04 C
952 24-07-2006 14:44:01 32.7 C 23 % 8.86 C
953 24-07-2006 14:54:01 33 C 21 % 7.77 C
954 24-07-2006 15:04:01 33 C 20 % 7.06 C
955 24-07-2006 15:14:01 32.3 C 21 % 7.2 C
956 24-07-2006 15:24:01 31.8 C 23 % 8.12 C
957 24-07-2006 15:34:02 32.3 C 21 % 7.2 C
958 24-07-2006 15:44:02 32.7 C 21 % 7.53 C
959 24-07-2006 15:54:01 33.5 C 20 % 7.47 C
960 24-07-2006 16:04:01 34 C 20 % 7.88 C
961 24-07-2006 16:14:01 33.8 C 20 % 7.71 C
962 24-07-2006 16:24:01 33.5 C 20 % 7.47 C
963 24-07-2006 16:34:02 33.1 C 20 % 7.14 C
964 24-07-2006 16:44:02 33.5 C 20 % 7.47 C
965 24-07-2006 16:54:01 33.1 C 20 % 7.14 C
966 24-07-2006 17:04:01 33.1 C 20 % 7.14 C
967 24-07-2006 17:14:01 33.2 C 20 % 7.22 C
968 24-07-2006 17:24:01 33 C 20 % 7.06 C
969 24-07-2006 17:34:01 33.3 C 20 % 7.3 C
970 24-07-2006 17:44:01 33.3 C 20 % 7.3 C
971 24-07-2006 17:54:02 33.7 C 20 % 7.63 C
972 24-07-2006 18:04:02 33.5 C 20 % 7.47 C
973 24-07-2006 18:14:02 33.7 C 20 % 7.63 C
974 24-07-2006 18:24:02 33.9 C 20 % 7.8 C
975 24-07-2006 18:34:02 34 C 20 % 7.88 C
Sensor: Nr:Datum:Temp:Feuchte:Taupunkt:
Aussen-T/F 976 24-07-2006 18:44:02 34 C 20 % 7.88 C
977 24-07-2006 18:54:02 33.8 C 20 % 7.71 C
978 24-07-2006 19:04:02 33.7 C 20 % 7.63 C
979 24-07-2006 19:14:02 33.6 C 20 % 7.55 C
980 24-07-2006 19:24:02 33.3 C 20 % 7.3 C
981 24-07-2006 19:34:03 33.2 C 20 % 7.22 C
982 24-07-2006 19:44:03 32.8 C 20 % 6.9 C
983 24-07-2006 19:54:02 32.9 C 20 % 6.98 C
984 24-07-2006 20:04:02 32.4 C 20 % 6.57 C
985 24-07-2006 20:14:02 32.4 C 20 % 6.57 C
986 24-07-2006 20:24:02 32.4 C 20 % 6.57 C
987 24-07-2006 20:34:02 31.8 C 21 % 6.79 C
988 24-07-2006 20:44:02 31.5 C 25 % 9.1 C
989 24-07-2006 20:54:02 30.9 C 25 % 8.59 C
990 24-07-2006 21:04:02 30.4 C 27 % 9.31 C
991 24-07-2006 21:14:02 30.2 C 30 % 10.71 C
992 24-07-2006 21:24:02 29.3 C 30 % 9.94 C
993 24-07-2006 21:34:03 28.9 C 31 % 10.08 C
994 24-07-2006 21:44:03 28.5 C 33 % 10.67 C
995 24-07-2006 21:54:02 28.1 C 33 % 10.32 C
996 24-07-2006 22:04:02 27.8 C 34 % 10.51 C
997 24-07-2006 22:14:03 27.5 C 35 % 10.68 C
998 24-07-2006 22:24:02 27.6 C 36 % 11.19 C
999 24-07-2006 22:34:02 27.4 C 36 % 11.01 C
1000 24-07-2006 22:44:02 27.4 C 36 % 11.01 C
Sensor: Nr:Datum:Temp:Feuchte:Taupunkt:
Aussen-T/F 1001 24-07-2006 22:54:02 27.3 C 37 % 11.34 C
1002 24-07-2006 23:04:02 27 C 37 % 11.07 C
1003 24-07-2006 23:14:03 26.8 C 38 % 11.3 C
1004 24-07-2006 23:24:02 26.5 C 39 % 11.42 C
1005 24-07-2006 23:34:01 26.3 C 41 % 12 C
1006 24-07-2006 23:44:01 26.2 C 41 % 11.91 C
1007 24-07-2006 23:54:02 26.1 C 42 % 12.19 C

Legende:
   Min
   Max


Maximal/Minimal-Werte vom 18.07.2006 - 24.07.2006

Sensor Min Max Avg
Temp
(Aussen-T/F)
16.1 °C
18-07-2006  06:08:01
35.6 °C
19-07-2006  18:29:02
26.81 °C
Feuchte
(Aussen-T/F)
20 %
18-07-2006  12:38:01
89 %
22-07-2006  16:32:04
42.93 %
Taupunkt
(Aussen-T/F)
5.26 C
18-07-2006  21:28:02
20.71 C
22-07-2006  17:32:04
11.3 C

Die Daten stammen von einer Davis Vantage Pro 2 Wetter-Station und werden unter Linux mit der Software wview2wettercgi und aufbereitet. Alle Angaben erfolgen ohne Gewähr für ihre Vollständigkeit oder Richtigkeit.
Kontakt: Rainer Krienke krienke@uni-koblenz.de . Meine Webseiten an der Uni Koblenz oder privat.
Version: $Revision: 0.78 $